Time;durP1;ratioP1;P1;durP2;ratioP2;P2;SDS_P1;SDS_P2;PMS_P1;PMS_P2;Temp;Humidity;BMP_temperature;BMP_pressure;BME280_temperature;BME280_humidity;BME280_pressure;Samples;Min_cycle;Max_cycle;Signal;HPM_P1;HPM_P2
2021/07/30 00:01:21;;;;;;;3.65;2.10;;;21.00;59.40;;;;;;4959232;28;20023;-82
2021/07/30 00:03:47;;;;;;;3.65;2.05;;;20.90;59.30;;;;;;4975495;28;20042;-81
2021/07/30 00:06:13;;;;;;;3.85;2.08;;;20.90;59.30;;;;;;4975485;28;20027;-82
2021/07/30 00:08:38;;;;;;;4.47;2.40;;;20.90;59.40;;;;;;4959100;28;20043;-81
2021/07/30 00:11:04;;;;;;;3.55;2.45;;;20.80;59.40;;;;;;4959863;28;20031;-82
2021/07/30 00:13:30;;;;;;;3.83;2.05;;;20.80;59.50;;;;;;4958695;28;20039;-82
2021/07/30 00:15:56;;;;;;;3.40;2.25;;;20.80;59.50;;;;;;4959032;28;20463;-81
2021/07/30 00:18:21;;;;;;;3.05;2.10;;;20.80;59.50;;;;;;4975014;28;20041;-82
2021/07/30 00:20:47;;;;;;;3.50;2.22;;;20.70;59.40;;;;;;4975319;28;20023;-81
2021/07/30 00:23:13;;;;;;;3.25;2.13;;;20.70;59.50;;;;;;4974214;28;20391;-81
2021/07/30 00:25:38;;;;;;;3.05;2.13;;;20.70;59.50;;;;;;4974806;28;20023;-81
2021/07/30 00:28:04;;;;;;;3.60;2.22;;;20.60;59.50;;;;;;4958481;28;20042;-81
2021/07/30 00:30:30;;;;;;;3.40;2.08;;;20.60;59.50;;;;;;4974884;28;20026;-81
2021/07/30 00:32:57;;;;;;;4.18;2.25;;;20.60;59.60;;;;;;4974994;28;20125;-82
2021/07/30 00:35:23;;;;;;;2.70;1.95;;;20.50;59.50;;;;;;4974652;28;20022;-81
2021/07/30 00:37:48;;;;;;;3.67;2.22;;;20.50;59.60;;;;;;4975115;28;20039;-82
2021/07/30 00:40:14;;;;;;;3.90;2.42;;;20.50;59.60;;;;;;4958579;28;20035;-81
2021/07/30 00:42:51;;;;;;;2.90;2.10;;;20.50;59.60;;;;;;4958165;28;20047;-81
2021/07/30 00:45:18;;;;;;;3.65;2.13;;;20.50;59.70;;;;;;4958650;28;20034;-82
2021/07/30 00:47:45;;;;;;;4.15;2.25;;;20.40;59.70;;;;;;4975475;28;20034;-81
2021/07/30 00:50:11;;;;;;;3.95;2.53;;;20.40;59.70;;;;;;4975255;28;20535;-82
2021/07/30 00:52:37;;;;;;;3.50;2.30;;;20.40;59.70;;;;;;4957948;28;20019;-81
2021/07/30 00:55:03;;;;;;;3.25;2.22;;;20.30;59.70;;;;;;4958378;28;20049;-81
2021/07/30 00:57:29;;;;;;;4.30;2.17;;;20.30;59.70;;;;;;4942009;28;20129;-82
2021/07/30 00:59:55;;;;;;;3.72;2.42;;;20.30;59.80;;;;;;4958065;28;20085;-81
2021/07/30 01:02:22;;;;;;;4.22;2.15;;;20.30;59.80;;;;;;4942024;28;20054;-81
2021/07/30 01:04:47;;;;;;;2.38;1.95;;;20.20;59.80;;;;;;4974280;28;20033;-81
2021/07/30 01:07:13;;;;;;;3.88;2.60;;;20.20;59.80;;;;;;4973854;28;20031;-81
2021/07/30 01:09:39;;;;;;;3.45;2.47;;;20.20;59.90;;;;;;4958028;28;20077;-81
2021/07/30 01:12:08;;;;;;;3.40;2.25;;;20.10;59.80;;;;;;4973840;28;20138;-81
2021/07/30 01:14:34;;;;;;;3.17;2.10;;;20.10;59.90;;;;;;4975079;28;20027;-81
2021/07/30 01:17:00;;;;;;;2.42;1.98;;;20.10;59.90;;;;;;4957646;28;20046;-81
2021/07/30 01:19:26;;;;;;;3.28;2.08;;;20.10;59.90;;;;;;4957946;28;20038;-81
2021/07/30 01:21:53;;;;;;;3.72;2.17;;;20.00;60.00;;;;;;4975554;28;20027;-81
2021/07/30 01:24:23;;;;;;;3.55;2.30;;;20.00;60.00;;;;;;4957763;28;20133;-81
2021/07/30 01:26:49;;;;;;;3.90;2.60;;;20.00;60.00;;;;;;4973845;28;20352;-81
2021/07/30 01:29:15;;;;;;;3.22;2.38;;;20.00;60.00;;;;;;4973694;28;20027;-81
2021/07/30 01:31:41;;;;;;;3.40;2.22;;;20.00;60.10;;;;;;4958229;28;20380;-81
2021/07/30 01:34:07;;;;;;;3.33;2.30;;;19.90;60.10;;;;;;4974239;28;20038;-81
2021/07/30 01:36:33;;;;;;;3.17;2.15;;;19.90;60.10;;;;;;4973346;28;20133;-81
2021/07/30 01:38:59;;;;;;;4.35;2.53;;;19.90;60.20;;;;;;4957485;28;20031;-81
2021/07/30 01:41:25;;;;;;;4.32;2.63;;;19.80;60.10;;;;;;4957446;28;20057;-81
2021/07/30 01:43:51;;;;;;;3.08;2.42;;;19.80;60.20;;;;;;4973695;28;20037;-81
2021/07/30 01:46:16;;;;;;;3.25;2.45;;;19.80;60.20;;;;;;4957450;28;20030;-81
2021/07/30 01:48:42;;;;;;;3.40;2.33;;;19.70;60.20;;;;;;4957639;28;20038;-81
2021/07/30 01:51:08;;;;;;;3.38;2.30;;;19.70;60.20;;;;;;4957377;28;20035;-81
2021/07/30 01:53:34;;;;;;;3.95;2.38;;;19.70;60.20;;;;;;4973449;28;20110;-81
2021/07/30 01:56:04;;;;;;;4.13;2.78;;;19.70;60.30;;;;;;4974429;28;20038;-81
2021/07/30 01:58:32;;;;;;;3.78;2.28;;;19.70;60.30;;;;;;4958092;28;20034;-81
2021/07/30 02:00:57;;;;;;;3.78;2.38;;;19.60;60.30;;;;;;4957472;28;20023;-81
2021/07/30 02:03:23;;;;;;;4.40;2.63;;;19.70;60.40;;;;;;4957326;28;20170;-81
2021/07/30 02:05:49;;;;;;;3.00;2.20;;;19.60;60.40;;;;;;4973306;28;20030;-81
2021/07/30 02:08:15;;;;;;;4.10;2.40;;;19.60;60.40;;;;;;4957145;28;20043;-81
2021/07/30 02:10:41;;;;;;;3.90;2.38;;;19.60;60.40;;;;;;4957402;28;20035;-81
2021/07/30 02:15:51;;;;;;;3.43;2.33;;;19.50;60.40;;;;;;4973962;28;20035;-81
2021/07/30 02:18:16;;;;;;;3.00;1.98;;;19.50;60.40;;;;;;4957234;28;20495;-81
2021/07/30 02:20:42;;;;;;;5.88;2.40;;;19.50;60.50;;;;;;4957869;28;20035;-81
2021/07/30 02:23:08;;;;;;;3.78;2.33;;;19.50;60.50;;;;;;4973337;28;20082;-80
2021/07/30 02:25:34;;;;;;;3.22;2.42;;;19.40;60.50;;;;;;4973487;28;20031;-81
2021/07/30 02:28:00;;;;;;;3.60;2.33;;;19.40;60.50;;;;;;4957008;28;20034;-82
2021/07/30 02:30:25;;;;;;;2.92;2.15;;;19.40;60.50;;;;;;4957075;28;20039;-81
2021/07/30 02:32:51;;;;;;;2.78;2.13;;;19.40;60.50;;;;;;4957146;28;20035;-82
2021/07/30 02:35:17;;;;;;;3.63;2.45;;;19.40;60.60;;;;;;4941846;28;20130;-81
2021/07/30 02:37:43;;;;;;;3.33;2.22;;;19.40;60.60;;;;;;4972852;28;20085;-82
2021/07/30 02:40:09;;;;;;;3.20;2.30;;;19.40;60.70;;;;;;4973599;28;20115;-79
2021/07/30 02:42:34;;;;;;;3.47;2.22;;;19.30;60.70;;;;;;4940786;28;20050;-80
2021/07/30 02:45:00;;;;;;;4.15;2.40;;;19.30;60.70;;;;;;4974163;28;20090;-79
2021/07/30 02:47:26;;;;;;;2.97;2.13;;;19.20;60.70;;;;;;4944479;28;20118;-80
2021/07/30 02:49:52;;;;;;;3.83;2.38;;;19.30;60.80;;;;;;4976601;28;20031;-80
2021/07/30 02:52:17;;;;;;;3.00;2.20;;;19.20;60.70;;;;;;4961092;28;20034;-80
2021/07/30 02:54:43;;;;;;;4.15;2.40;;;19.20;60.80;;;;;;4960599;28;20038;-80
2021/07/30 02:57:09;;;;;;;4.25;2.75;;;19.20;60.80;;;;;;4976482;28;20497;-80
2021/07/30 02:59:34;;;;;;;2.80;2.17;;;19.20;60.80;;;;;;4960564;28;20077;-80
2021/07/30 03:02:00;;;;;;;3.20;2.38;;;19.10;60.80;;;;;;4960150;28;20069;-80
2021/07/30 03:04:26;;;;;;;3.03;2.20;;;19.10;60.80;;;;;;4960186;28;20031;-80
2021/07/30 03:06:52;;;;;;;3.38;2.20;;;19.10;60.90;;;;;;4976913;28;20052;-80
2021/07/30 03:09:18;;;;;;;2.88;2.10;;;19.10;60.90;;;;;;4960206;28;20105;-80
2021/07/30 03:11:43;;;;;;;3.03;2.22;;;19.10;60.90;;;;;;4960947;28;20038;-79
2021/07/30 03:14:09;;;;;;;3.85;2.20;;;19.00;60.90;;;;;;4976299;28;20035;-81
2021/07/30 03:16:35;;;;;;;4.20;2.65;;;19.00;60.90;;;;;;4960268;28;20117;-80
2021/07/30 03:19:00;;;;;;;2.72;2.33;;;19.00;61.00;;;;;;4975934;28;20031;-80
2021/07/30 03:21:27;;;;;;;3.60;2.40;;;19.00;61.70;;;;;;4976315;28;20066;-79
2021/07/30 03:23:54;;;;;;;3.70;2.25;;;19.00;61.10;;;;;;4959951;28;20457;-80
2021/07/30 03:26:20;;;;;;;2.47;2.00;;;19.00;61.10;;;;;;4959543;28;20039;-80
2021/07/30 03:28:48;;;;;;;3.30;2.20;;;19.00;61.10;;;;;;4975841;28;20038;-81
2021/07/30 03:31:14;;;;;;;3.25;2.13;;;18.90;61.10;;;;;;4977022;28;20035;-80
2021/07/30 03:33:39;;;;;;;2.90;2.15;;;18.90;61.10;;;;;;4959713;28;20035;-80
2021/07/30 03:36:05;;;;;;;4.22;2.50;;;18.90;61.10;;;;;;4944280;28;20399;-80
2021/07/30 03:38:31;;;;;;;3.53;2.40;;;18.90;61.20;;;;;;4975374;28;20325;-79
2021/07/30 03:41:02;;;;;;;4.00;2.40;;;18.80;61.10;;;;;;4959500;28;20047;-80
2021/07/30 03:43:28;;;;;;;3.72;2.53;;;18.80;61.20;;;;;;4959757;28;20035;-80
2021/07/30 03:45:53;;;;;;;2.80;2.30;;;18.80;61.20;;;;;;4959600;28;20034;-80
2021/07/30 03:48:19;;;;;;;3.30;2.20;;;18.80;61.20;;;;;;4976142;28;20042;-79
2021/07/30 03:50:45;;;;;;;4.22;2.42;;;18.80;61.30;;;;;;4959172;28;20383;-80
2021/07/30 03:53:11;;;;;;;3.50;2.38;;;18.80;61.30;;;;;;4959448;28;20035;-80
2021/07/30 03:55:36;;;;;;;3.28;2.25;;;18.70;61.30;;;;;;4975439;28;20038;-81
2021/07/30 03:58:02;;;;;;;4.15;2.20;;;18.70;61.30;;;;;;4958175;28;20038;-79
2021/07/30 04:00:28;;;;;;;3.17;2.15;;;18.70;61.30;;;;;;4975360;28;20027;-80
2021/07/30 04:02:54;;;;;;;3.42;2.22;;;18.70;61.40;;;;;;4959099;28;20375;-80
2021/07/30 04:05:19;;;;;;;2.55;2.05;;;18.70;61.40;;;;;;4975428;28;20026;-79
2021/07/30 04:07:45;;;;;;;4.32;2.20;;;18.70;61.40;;;;;;4959057;28;20034;-79
2021/07/30 04:10:11;;;;;;;2.42;1.85;;;18.60;61.40;;;;;;4959183;28;20042;-80
2021/07/30 04:12:36;;;;;;;3.22;2.13;;;18.60;61.40;;;;;;4959631;28;20038;-80
2021/07/30 04:15:02;;;;;;;3.47;2.15;;;18.60;61.50;;;;;;4959010;28;20045;-80
2021/07/30 04:17:28;;;;;;;3.53;2.20;;;18.60;61.50;;;;;;4974907;28;20050;-80
2021/07/30 04:19:54;;;;;;;3.42;2.40;;;18.60;61.50;;;;;;4958914;28;20066;-80
2021/07/30 04:22:19;;;;;;;3.67;2.30;;;18.60;61.50;;;;;;4974851;28;20031;-79
2021/07/30 04:24:45;;;;;;;3.47;2.03;;;18.60;61.50;;;;;;4958779;28;20039;-81
2021/07/30 04:27:11;;;;;;;3.38;2.22;;;18.60;61.60;;;;;;4958872;28;20110;-80
2021/07/30 04:29:38;;;;;;;3.83;2.15;;;18.50;61.60;;;;;;4974708;28;20045;-80
2021/07/30 04:32:06;;;;;;;3.50;2.33;;;18.50;61.70;;;;;;4976404;28;20472;-80
2021/07/30 04:34:32;;;;;;;3.80;2.20;;;18.50;61.70;;;;;;4958435;28;20052;-80
2021/07/30 04:36:58;;;;;;;3.10;2.20;;;18.50;61.70;;;;;;4958366;28;20027;-80
2021/07/30 04:39:23;;;;;;;3.13;2.10;;;18.50;61.70;;;;;;4958314;28;20035;-80
2021/07/30 04:41:49;;;;;;;3.17;2.13;;;18.50;61.80;;;;;;4958034;28;20066;-80
2021/07/30 04:44:15;;;;;;;3.05;2.13;;;18.40;61.80;;;;;;4974845;28;20134;-80
2021/07/30 04:46:41;;;;;;;3.53;2.40;;;18.40;61.80;;;;;;4958474;28;20039;-80
2021/07/30 04:49:06;;;;;;;2.45;2.08;;;18.40;61.90;;;;;;4974159;28;20094;-80
2021/07/30 04:51:33;;;;;;;3.42;2.17;;;18.40;61.90;;;;;;4958453;28;20037;-80
2021/07/30 04:53:59;;;;;;;3.17;2.20;;;18.40;61.90;;;;;;4958368;28;20439;-80
2021/07/30 04:56:25;;;;;;;3.17;2.20;;;18.40;62.00;;;;;;4942079;28;20031;-80
2021/07/30 04:58:51;;;;;;;3.15;2.13;;;18.40;62.00;;;;;;4958870;28;20173;-80
2021/07/30 05:01:17;;;;;;;3.10;2.05;;;18.40;62.00;;;;;;4958022;28;20080;-80
2021/07/30 05:03:42;;;;;;;3.90;2.40;;;18.40;62.10;;;;;;4974116;28;20574;-80
2021/07/30 05:06:16;;;;;;;3.83;2.25;;;18.40;62.10;;;;;;4975307;28;20034;-80
2021/07/30 05:08:42;;;;;;;2.45;2.00;;;18.40;62.20;;;;;;4957898;28;20038;-80
2021/07/30 05:11:10;;;;;;;2.90;2.28;;;18.40;62.20;;;;;;4957651;28;20034;-80
2021/07/30 05:13:40;;;;;;;3.35;2.08;;;18.40;62.20;;;;;;4957792;28;20051;-80
2021/07/30 05:16:07;;;;;;;4.10;2.08;;;18.40;62.30;;;;;;4957730;28;20027;-80
2021/07/30 05:18:33;;;;;;;3.05;2.03;;;18.30;62.30;;;;;;4974145;28;20038;-80
2021/07/30 05:20:59;;;;;;;3.03;2.10;;;18.40;62.30;;;;;;4974015;28;20526;-80
2021/07/30 05:23:25;;;;;;;2.75;1.90;;;18.30;62.30;;;;;;4974532;28;20369;-80
2021/07/30 05:25:54;;;;;;;3.38;2.45;;;18.30;62.40;;;;;;4957676;28;20031;-80
2021/07/30 05:28:20;;;;;;;3.58;2.53;;;18.40;62.40;;;;;;4957518;28;20118;-80
2021/07/30 05:30:46;;;;;;;4.45;2.47;;;18.30;62.40;;;;;;4957589;28;20039;-80
2021/07/30 05:33:12;;;;;;;3.00;2.20;;;18.30;62.50;;;;;;4958303;28;20467;-80
2021/07/30 05:35:37;;;;;;;4.03;2.28;;;18.30;62.50;;;;;;4957615;28;20495;-80
2021/07/30 05:38:03;;;;;;;4.13;2.58;;;18.30;62.50;;;;;;4974818;28;20046;-80
2021/07/30 05:40:29;;;;;;;4.82;2.15;;;18.40;62.60;;;;;;4957311;28;20035;-79
2021/07/30 05:42:55;;;;;;;2.88;2.00;;;18.30;62.60;;;;;;4957521;28;20055;-80
2021/07/30 05:45:20;;;;;;;3.65;2.13;;;18.40;62.70;;;;;;4958651;28;20034;-80
2021/07/30 05:47:49;;;;;;;2.47;2.00;;;18.40;62.70;;;;;;4960710;28;20572;-79
2021/07/30 05:50:16;;;;;;;3.50;2.20;;;18.40;62.80;;;;;;4980227;28;20102;-80
2021/07/30 05:52:42;;;;;;;2.65;1.85;;;18.40;62.80;;;;;;4962160;28;20027;-79
2021/07/30 05:55:08;;;;;;;2.63;2.08;;;18.40;62.80;;;;;;4961070;28;20471;-80
2021/07/30 05:57:33;;;;;;;3.40;2.47;;;18.40;62.80;;;;;;4958481;28;20369;-80
2021/07/30 06:00:04;;;;;;;3.17;2.22;;;18.40;62.90;;;;;;4974371;28;20042;-79
2021/07/30 06:02:35;;;;;;;3.20;2.10;;;18.40;62.90;;;;;;4958211;28;20478;-80
2021/07/30 06:05:01;;;;;;;3.15;2.10;;;18.40;62.90;;;;;;4957900;28;20059;-80
2021/07/30 06:07:27;;;;;;;2.53;2.00;;;18.40;62.90;;;;;;4961295;28;20034;-81
2021/07/30 06:09:53;;;;;;;2.83;2.08;;;18.40;63.00;;;;;;4957438;28;20117;-79
2021/07/30 06:12:19;;;;;;;2.97;2.22;;;18.40;63.00;;;;;;4957400;28;20035;-79
2021/07/30 06:14:44;;;;;;;2.90;2.08;;;18.50;63.00;;;;;;4973395;28;20075;-79
2021/07/30 06:17:11;;;;;;;3.22;2.17;;;18.50;63.10;;;;;;4973458;28;20117;-79
2021/07/30 06:19:37;;;;;;;3.72;2.28;;;18.50;63.10;;;;;;4973984;28;20085;-79
2021/07/30 06:22:03;;;;;;;3.83;2.47;;;18.50;63.10;;;;;;4960771;28;20493;-80
2021/07/30 06:24:28;;;;;;;3.55;2.38;;;18.50;63.10;;;;;;4961066;28;20110;-80
2021/07/30 06:26:54;;;;;;;3.28;2.15;;;18.50;63.10;;;;;;4961057;28;20117;-79
2021/07/30 06:29:20;;;;;;;3.70;2.35;;;18.60;63.10;;;;;;4960755;28;20043;-80
2021/07/30 06:31:46;;;;;;;2.78;2.10;;;18.50;63.10;;;;;;4979005;28;20034;-79
2021/07/30 06:34:11;;;;;;;3.53;2.33;;;18.60;63.80;;;;;;4961495;28;20034;-79
2021/07/30 06:36:37;;;;;;;3.78;2.40;;;18.60;63.10;;;;;;4977603;28;20031;-78
2021/07/30 06:39:03;;;;;;;2.72;2.00;;;18.60;63.10;;;;;;4961022;28;20114;-78
2021/07/30 06:41:29;;;;;;;3.42;2.42;;;18.70;63.20;;;;;;4960922;28;20081;-79
2021/07/30 06:43:55;;;;;;;3.78;2.42;;;18.70;63.40;;;;;;4976782;28;20484;-81
2021/07/30 06:46:20;;;;;;;4.85;3.00;;;18.70;63.50;;;;;;4976992;28;20067;-80
2021/07/30 06:48:46;;;;;;;3.13;2.33;;;18.80;63.50;;;;;;4961578;28;20102;-80
2021/07/30 06:51:13;;;;;;;4.60;2.90;;;18.80;63.50;;;;;;4976454;28;20113;-83
2021/07/30 06:53:40;;;;;;;3.58;2.47;;;18.80;63.50;;;;;;4961653;28;20381;-80
2021/07/30 06:56:10;;;;;;;4.50;2.67;;;18.80;63.60;;;;;;4960678;28;20035;-81
2021/07/30 06:58:36;;;;;;;4.00;2.60;;;18.90;63.60;;;;;;4960622;28;20042;-80
2021/07/30 07:01:05;;;;;;;4.97;3.00;;;18.90;63.50;;;;;;4961376;28;20031;-79
2021/07/30 07:03:31;;;;;;;3.33;2.33;;;18.90;63.60;;;;;;4980734;28;20467;-84
2021/07/30 07:05:58;;;;;;;3.45;2.45;;;18.90;63.50;;;;;;4964423;28;20033;-84
2021/07/30 07:08:23;;;;;;;4.22;2.55;;;19.00;63.50;;;;;;4966364;28;20043;-83
2021/07/30 07:10:49;;;;;;;3.75;2.40;;;19.00;63.50;;;;;;4961546;28;20491;-84
2021/07/30 07:13:16;;;;;;;3.95;2.75;;;19.00;63.40;;;;;;4977408;28;20039;-84
2021/07/30 07:15:43;;;;;;;4.03;2.50;;;19.10;63.50;;;;;;4977948;28;20027;-84
2021/07/30 07:18:09;;;;;;;3.33;2.40;;;19.10;63.50;;;;;;4977192;28;20049;-84
2021/07/30 07:20:35;;;;;;;3.42;2.33;;;19.20;63.50;;;;;;4961022;28;20089;-83
2021/07/30 07:23:01;;;;;;;3.30;2.25;;;19.20;63.40;;;;;;4977936;28;20039;-82
2021/07/30 07:25:26;;;;;;;3.45;2.50;;;19.20;63.40;;;;;;4960600;28;20066;-84
2021/07/30 07:27:52;;;;;;;3.85;2.40;;;19.30;63.40;;;;;;4960781;28;20062;-84
2021/07/30 07:30:19;;;;;;;5.13;2.42;;;19.30;63.30;;;;;;4960495;28;20085;-79
2021/07/30 07:32:45;;;;;;;3.40;2.45;;;19.30;63.30;;;;;;4960142;28;20039;-81
2021/07/30 07:35:11;;;;;;;4.07;2.50;;;19.40;63.50;;;;;;4960238;28;20105;-81
2021/07/30 07:37:37;;;;;;;2.50;2.10;;;19.40;63.40;;;;;;4976566;28;20459;-80
2021/07/30 07:40:06;;;;;;;4.07;2.65;;;19.40;63.40;;;;;;4975860;28;20118;-80
2021/07/30 07:42:32;;;;;;;3.25;2.28;;;19.50;63.40;;;;;;4959040;28;20149;-80
2021/07/30 07:44:59;;;;;;;3.30;2.20;;;19.50;63.30;;;;;;4975673;28;20062;-79
2021/07/30 07:47:25;;;;;;;3.47;2.20;;;19.50;63.20;;;;;;4959426;28;20030;-79
2021/07/30 07:49:51;;;;;;;2.58;2.10;;;19.60;63.30;;;;;;4975664;28;20038;-82
2021/07/30 07:52:16;;;;;;;2.92;2.08;;;19.60;63.20;;;;;;4976381;28;20050;-82
2021/07/30 07:54:42;;;;;;;3.30;2.08;;;19.70;63.20;;;;;;4959717;28;20031;-83
2021/07/30 07:57:08;;;;;;;3.55;2.13;;;19.70;63.10;;;;;;4960044;28;20027;-80
2021/07/30 07:59:34;;;;;;;3.30;2.47;;;19.70;63.10;;;;;;4959363;28;20041;-80
2021/07/30 08:02:00;;;;;;;2.95;2.10;;;19.80;63.10;;;;;;4959494;28;20117;-79
2021/07/30 08:04:26;;;;;;;3.35;2.50;;;19.80;63.20;;;;;;4975677;28;20499;-80
2021/07/30 08:06:51;;;;;;;2.65;2.00;;;19.90;63.20;;;;;;4959812;28;20046;-80
2021/07/30 08:09:17;;;;;;;2.00;1.80;;;19.90;63.10;;;;;;4975149;28;20388;-79
2021/07/30 08:11:43;;;;;;;3.67;2.50;;;20.00;63.10;;;;;;4975211;28;20039;-79
2021/07/30 08:14:09;;;;;;;2.80;1.88;;;20.00;63.00;;;;;;4959221;28;20062;-80
2021/07/30 08:16:34;;;;;;;3.03;1.98;;;20.10;63.10;;;;;;4958934;28;20079;-81
2021/07/30 08:19:00;;;;;;;2.70;2.00;;;20.10;63.70;;;;;;4958839;28;20034;-79
2021/07/30 08:21:26;;;;;;;3.03;2.28;;;20.20;63.10;;;;;;4975536;28;20046;-81
2021/07/30 08:23:52;;;;;;;2.45;1.85;;;20.20;63.00;;;;;;4974616;28;20085;-80
2021/07/30 08:26:18;;;;;;;3.30;2.20;;;20.30;63.00;;;;;;4974740;28;20035;-81
2021/07/30 08:28:44;;;;;;;3.10;2.20;;;20.30;62.90;;;;;;4958816;28;20031;-81
2021/07/30 08:31:10;;;;;;;3.05;2.17;;;20.40;62.90;;;;;;4975256;28;20035;-81
2021/07/30 08:33:36;;;;;;;3.20;2.22;;;20.50;62.90;;;;;;4958741;28;20027;-80
2021/07/30 08:36:02;;;;;;;3.90;2.38;;;20.50;62.80;;;;;;4958356;28;20042;-81
2021/07/30 08:38:28;;;;;;;2.10;1.70;;;20.60;62.90;;;;;;4958463;28;20035;-80
2021/07/30 08:40:54;;;;;;;2.85;1.90;;;20.70;62.80;;;;;;4974380;28;20077;-79
2021/07/30 08:43:19;;;;;;;2.97;1.83;;;20.70;62.80;;;;;;4958006;28;20058;-81
2021/07/30 08:45:51;;;;;;;2.95;1.83;;;20.80;62.70;;;;;;4978989;28;20122;-82
2021/07/30 08:48:18;;;;;;;3.05;2.00;;;20.90;62.80;;;;;;4974698;28;20045;-80
2021/07/30 08:50:46;;;;;;;2.13;1.65;;;21.00;62.80;;;;;;4958910;28;20058;-79
2021/07/30 08:53:20;;;;;;;5.13;1.77;;;21.00;62.70;;;;;;4958336;28;20031;-81
2021/07/30 08:55:45;;;;;;;2.67;1.80;;;21.10;62.60;;;;;;4975943;28;20106;-80
2021/07/30 08:58:13;;;;;;;3.05;1.98;;;21.10;62.50;;;;;;4974098;28;20130;-79
2021/07/30 09:00:39;;;;;;;3.10;1.70;;;21.20;62.50;;;;;;4974281;28;20114;-79
2021/07/30 09:03:05;;;;;;;2.05;1.80;;;21.30;62.50;;;;;;4942081;28;20126;-79
2021/07/30 09:05:35;;;;;;;3.20;1.83;;;21.30;62.40;;;;;;4958134;28;20066;-79
2021/07/30 09:08:06;;;;;;;2.08;1.48;;;21.40;62.40;;;;;;4957956;28;20031;-81
2021/07/30 09:10:40;;;;;;;2.47;1.80;;;21.50;62.40;;;;;;4958238;28;20038;-79
2021/07/30 09:13:11;;;;;;;2.97;1.90;;;21.50;62.40;;;;;;4958136;28;20027;-79
2021/07/30 09:15:37;;;;;;;3.13;1.75;;;21.60;62.40;;;;;;4975099;28;20030;-79
2021/07/30 09:18:04;;;;;;;2.22;1.48;;;21.60;62.30;;;;;;4974259;28;20027;-79
2021/07/30 09:20:30;;;;;;;2.90;1.70;;;21.70;62.40;;;;;;4974377;28;20031;-79
2021/07/30 09:22:55;;;;;;;1.83;1.55;;;21.80;62.40;;;;;;4974070;28;20038;-79
2021/07/30 09:25:36;;;;;;;2.50;1.60;;;21.80;62.40;;;;;;4973548;28;20518;-79
2021/07/30 09:28:04;;;;;;;3.60;1.90;;;21.90;62.50;;;;;;4958032;28;20353;-78
2021/07/30 09:30:30;;;;;;;2.35;1.58;;;22.00;62.40;;;;;;4975073;28;20042;-80
2021/07/30 09:32:56;;;;;;;3.08;1.88;;;22.10;62.40;;;;;;4973919;28;20423;-80
2021/07/30 09:35:22;;;;;;;2.13;1.70;;;22.10;62.40;;;;;;4973550;28;20039;-78
2021/07/30 09:38:17;;;;;;;1.70;1.38;;;22.20;62.40;;;;;;4974442;28;20062;-78
2021/07/30 09:40:44;;;;;;;2.17;1.58;;;22.30;62.60;;;;;;4974983;28;20042;-78
2021/07/30 09:43:23;;;;;;;2.80;1.70;;;22.40;62.40;;;;;;4957910;28;20162;-78
2021/07/30 09:45:51;;;;;;;2.28;1.50;;;22.40;62.40;;;;;;4974860;28;20106;-78
2021/07/30 09:48:19;;;;;;;2.53;1.70;;;22.50;62.30;;;;;;4973677;28;20038;-78
2021/07/30 09:50:46;;;;;;;3.22;1.90;;;22.60;62.40;;;;;;4957819;28;20180;-78
2021/07/30 09:53:14;;;;;;;2.00;1.50;;;22.60;62.30;;;;;;4957555;28;20023;-78
2021/07/30 09:55:41;;;;;;;2.45;1.67;;;22.70;62.30;;;;;;4975460;28;20022;-79
2021/07/30 09:58:08;;;;;;;1.50;1.40;;;22.80;62.30;;;;;;4977706;28;20035;-79
2021/07/30 10:00:36;;;;;;;1.88;1.45;;;22.90;62.30;;;;;;4961472;28;20041;-78
2021/07/30 10:03:03;;;;;;;2.22;1.55;;;23.00;62.20;;;;;;4962247;28;20035;-78
2021/07/30 10:05:30;;;;;;;2.38;1.40;;;23.10;62.10;;;;;;4961332;28;20034;-79
2021/07/30 10:07:58;;;;;;;2.33;1.40;;;23.10;62.10;;;;;;4977200;28;20058;-78
2021/07/30 10:10:27;;;;;;;2.40;1.65;;;23.20;62.10;;;;;;4977026;28;20058;-78
2021/07/30 10:12:54;;;;;;;2.22;1.50;;;23.30;62.00;;;;;;4977237;28;20034;-78
2021/07/30 10:15:21;;;;;;;1.75;1.42;;;23.30;61.90;;;;;;4977631;28;20058;-79
2021/07/30 10:17:52;;;;;;;2.08;1.50;;;23.40;61.80;;;;;;4978372;28;20443;-78
2021/07/30 10:20:20;;;;;;;1.63;1.40;;;23.50;61.70;;;;;;4961358;28;20038;-78
2021/07/30 10:23:12;;;;;;;2.17;1.40;;;23.60;61.70;;;;;;4960864;28;20030;-78
2021/07/30 10:25:48;;;;;;;1.45;1.27;;;23.60;61.70;;;;;;4961261;28;20477;-78
2021/07/30 10:28:25;;;;;;;3.10;1.60;;;23.70;61.60;;;;;;4961479;28;20038;-78
2021/07/30 10:31:05;;;;;;;1.95;1.38;;;23.80;62.20;;;;;;4961095;28;20093;-78
2021/07/30 10:33:31;;;;;;;1.90;1.30;;;23.80;61.60;;;;;;4960827;28;20027;-78
2021/07/30 10:35:58;;;;;;;2.55;1.70;;;23.90;61.50;;;;;;4976801;28;20034;-78
2021/07/30 10:38:24;;;;;;;1.60;1.40;;;24.00;61.50;;;;;;4976849;28;20031;-78
2021/07/30 10:41:08;;;;;;;1.63;1.50;;;24.00;61.30;;;;;;4977780;28;20070;-79
2021/07/30 10:43:49;;;;;;;1.52;1.42;;;24.10;61.40;;;;;;4977954;28;20038;-78
2021/07/30 10:46:16;;;;;;;1.45;1.25;;;24.20;61.30;;;;;;4977413;28;20035;-78
2021/07/30 10:48:43;;;;;;;1.80;1.50;;;24.20;61.20;;;;;;4977108;28;20419;-78
2021/07/30 10:51:18;;;;;;;1.73;1.50;;;24.30;61.20;;;;;;4976561;28;20423;-79
2021/07/30 10:53:44;;;;;;;1.65;1.30;;;24.30;61.20;;;;;;4976447;28;20031;-79
2021/07/30 10:56:22;;;;;;;2.38;1.60;;;24.40;61.10;;;;;;4977590;28;20029;-79
2021/07/30 10:58:53;;;;;;;1.55;1.40;;;24.50;61.20;;;;;;4976610;28;20380;-78
2021/07/30 11:01:22;;;;;;;1.65;1.50;;;24.50;60.90;;;;;;4976756;28;20030;-78
2021/07/30 11:03:51;;;;;;;1.77;1.50;;;24.60;61.10;;;;;;4976249;28;20031;-78
2021/07/30 11:06:21;;;;;;;1.85;1.40;;;24.60;61.00;;;;;;4975918;28;20031;-77
2021/07/30 11:09:05;;;;;;;2.50;1.40;;;24.70;61.10;;;;;;4959797;28;20027;-78
2021/07/30 11:11:53;;;;;;;1.58;1.45;;;24.80;61.00;;;;;;4977057;28;20042;-79
2021/07/30 11:14:32;;;;;;;2.20;1.48;;;24.80;60.90;;;;;;4977351;28;20030;-78
2021/07/30 11:17:09;;;;;;;2.13;1.55;;;24.90;60.80;;;;;;4976833;28;20117;-77
2021/07/30 11:19:55;;;;;;;1.48;1.38;;;25.00;60.90;;;;;;4976154;28;20121;-77
2021/07/30 11:22:21;;;;;;;2.53;1.63;;;25.00;60.80;;;;;;4975763;28;20058;-77
2021/07/30 11:24:56;;;;;;;1.98;1.40;;;25.10;60.70;;;;;;4977617;28;20384;-78
2021/07/30 11:27:22;;;;;;;1.67;1.30;;;25.20;60.70;;;;;;4976184;28;20026;-78
2021/07/30 11:29:50;;;;;;;1.85;1.50;;;25.30;60.70;;;;;;4976978;28;20089;-78
2021/07/30 11:32:17;;;;;;;1.50;1.40;;;25.30;60.60;;;;;;4977008;28;20111;-78
2021/07/30 11:34:49;;;;;;;1.60;1.50;;;25.40;60.40;;;;;;4959592;28;20468;-81
2021/07/30 11:37:24;;;;;;;1.40;1.30;;;25.40;60.30;;;;;;4959765;28;20065;-80
2021/07/30 11:39:52;;;;;;;1.90;1.52;;;25.50;60.40;;;;;;4960047;28;20102;-84
2021/07/30 11:42:30;;;;;;;1.77;1.23;;;25.60;60.30;;;;;;4960400;28;20396;-79
2021/07/30 11:44:59;;;;;;;1.33;1.23;;;25.60;60.40;;;;;;4978052;28;20035;-80
2021/07/30 11:47:28;;;;;;;2.00;1.58;;;25.70;60.30;;;;;;4961711;28;20109;-79
2021/07/30 11:50:06;;;;;;;2.15;1.35;;;25.70;60.30;;;;;;4959871;28;20126;-80
2021/07/30 11:52:33;;;;;;;2.03;1.25;;;25.70;60.20;;;;;;4976372;28;20049;-79
2021/07/30 11:55:15;;;;;;;1.58;1.48;;;25.80;60.10;;;;;;4976584;28;20027;-79
2021/07/30 11:57:41;;;;;;;1.50;1.40;;;25.90;60.20;;;;;;4976118;28;20057;-79
2021/07/30 12:00:07;;;;;;;1.60;1.42;;;26.00;60.20;;;;;;4959202;28;20447;-79
2021/07/30 12:02:38;;;;;;;1.40;1.30;;;26.00;60.20;;;;;;4959624;28;20170;-79
2021/07/30 12:05:04;;;;;;;1.42;1.30;;;26.00;60.10;;;;;;4958995;28;20035;-80
2021/07/30 12:07:37;;;;;;;1.70;1.42;;;26.10;60.00;;;;;;4958694;28;20027;-79
2021/07/30 12:10:16;;;;;;;1.40;1.30;;;26.10;59.90;;;;;;4976245;28;20085;-79
2021/07/30 12:12:43;;;;;;;1.40;1.30;;;26.20;59.90;;;;;;4958981;28;20118;-79
2021/07/30 12:15:11;;;;;;;1.85;1.33;;;26.30;59.80;;;;;;4959018;28;20023;-80
2021/07/30 12:17:37;;;;;;;1.50;1.40;;;26.30;59.60;;;;;;4975074;28;20109;-79
2021/07/30 12:20:06;;;;;;;2.25;1.63;;;26.40;59.60;;;;;;4974785;28;20121;-79
2021/07/30 12:22:41;;;;;;;1.60;1.45;;;26.40;59.50;;;;;;4976168;28;20034;-79
2021/07/30 12:25:29;;;;;;;1.70;1.40;;;26.40;59.40;;;;;;4976003;28;20050;-79
2021/07/30 12:28:12;;;;;;;1.70;1.50;;;26.40;59.20;;;;;;4968703;28;20134;-79
2021/07/30 12:30:40;;;;;;;1.60;1.35;;;26.50;59.30;;;;;;4974929;28;20062;-78
2021/07/30 12:33:24;;;;;;;1.50;1.40;;;26.50;59.10;;;;;;4976324;28;20027;-79
2021/07/30 12:36:10;;;;;;;1.50;1.40;;;26.60;59.20;;;;;;4976336;28;20037;-79
2021/07/30 12:38:52;;;;;;;2.20;1.50;;;26.60;59.10;;;;;;4958438;28;20038;-79
2021/07/30 12:41:21;;;;;;;2.08;1.80;;;26.60;59.10;;;;;;4976061;28;20047;-79
2021/07/30 12:43:47;;;;;;;2.15;1.65;;;26.70;59.10;;;;;;4958929;28;20070;-80
2021/07/30 12:46:36;;;;;;;1.60;1.50;;;26.70;59.10;;;;;;4974608;28;20089;-79
2021/07/30 12:49:04;;;;;;;1.92;1.60;;;26.70;59.10;;;;;;4975286;28;20432;-80
2021/07/30 12:51:32;;;;;;;2.08;1.67;;;26.70;58.90;;;;;;4958400;28;20460;-80
2021/07/30 12:54:09;;;;;;;2.40;1.65;;;26.80;58.90;;;;;;4958039;28;20027;-80